This is the latest recevied weather packets stored in our database for station/object DG7YEO-13. If no packets are shown the sender has not sent any weather packets the latest 10 day(s).
| Time | Temp. | Humidity | Pressure | Rain* | Wind** | Luminosity | Snow |
|---|---|---|---|---|---|---|---|
| 1777661225 | 22.22° C | 42% | 1021.5 hPa | 0 mm | - | - | - |
| 1777660325 | 22.22° C | 40% | 1021.4 hPa | 0 mm | - | - | - |
| 1777659425 | 22.78° C | 39% | 1021.4 hPa | 0 mm | - | - | - |
| 1777658525 | 23.33° C | 37% | 1021.4 hPa | 0 mm | - | - | - |
| 1777657625 | 23.89° C | 36% | 1021.3 hPa | 0 mm | - | - | - |
| 1777656725 | 24.44° C | 35% | 1021.4 hPa | 0 mm | - | - | - |
| 1777655825 | 24.44° C | 35% | 1021.4 hPa | 0 mm | - | - | - |
| 1777654925 | 24.44° C | 35% | 1021.5 hPa | 0 mm | - | - | - |
| 1777654025 | 24.44° C | 35% | 1021.6 hPa | 0 mm | - | - | - |
| 1777653125 | 24.44° C | 34% | 1021.8 hPa | 0 mm | - | - | - |
| 1777652225 | 25° C | 34% | 1022 hPa | 0 mm | - | - | - |
| 1777651325 | 25° C | 33% | 1022.1 hPa | 0 mm | - | - | - |
| 1777649525 | 25° C | 34% | 1022.3 hPa | 0 mm | - | - | - |
| 1777648625 | 25° C | 34% | 1022.5 hPa | 0 mm | - | - | - |
| 1777647726 | 25° C | 33% | 1022.6 hPa | 0 mm | - | - | - |
| 1777646826 | 25° C | 33% | 1022.8 hPa | 0 mm | - | - | - |
| 1777645925 | 24.44° C | 34% | 1023 hPa | 0 mm | - | - | - |
| 1777645025 | 24.44° C | 33% | 1023.2 hPa | 0 mm | - | - | - |
| 1777644125 | 24.44° C | 34% | 1023.5 hPa | 0 mm | - | - | - |
| 1777643226 | 24.44° C | 34% | 1023.7 hPa | 0 mm | - | - | - |
| 1777642325 | 24.44° C | 33% | 1024 hPa | 0 mm | - | - | - |
| 1777641425 | 23.89° C | 33% | 1024.3 hPa | 0 mm | - | - | - |
| 1777640526 | 23.89° C | 33% | 1024.5 hPa | 0 mm | - | - | - |
| 1777639625 | 23.33° C | 33% | 1024.7 hPa | 0 mm | - | - | - |
| 1777638725 | 23.33° C | 34% | 1024.8 hPa | 0 mm | - | - | - |
* Rain latest hour (hover to see other rain measurements)
** Current wind speed in m/s (hover to see current wind gust speed)